Time;durP1;ratioP1;P1;durP2;ratioP2;P2;SDS_P1;SDS_P2;PMS_P1;PMS_P2;Temp;Humidity;BMP_temperature;BMP_pressure;BME280_temperature;BME280_humidity;BME280_pressure;Samples;Min_cycle;Max_cycle;Signal;HPM_P1;HPM_P2
2021/08/18 00:01:27;;;;;;;5.95;2.35;;;16.80;99.90;;;;;;5109986;28;20261;-72
2021/08/18 00:03:55;;;;;;;7.55;2.35;;;16.80;99.90;;;;;;5109458;28;20273;-69
2021/08/18 00:06:22;;;;;;;8.00;2.35;;;16.90;99.90;;;;;;5108358;28;20197;-73
2021/08/18 00:08:49;;;;;;;8.90;2.55;;;16.80;99.90;;;;;;5108683;28;20266;-68
2021/08/18 00:11:15;;;;;;;6.45;2.38;;;16.90;99.90;;;;;;5110310;28;20201;-69
2021/08/18 00:13:42;;;;;;;8.57;2.80;;;16.90;99.90;;;;;;5109544;28;20205;-70
2021/08/18 00:16:09;;;;;;;8.40;2.30;;;16.90;99.90;;;;;;5109825;27;20254;-69
2021/08/18 00:18:36;;;;;;;;;;;16.80;99.90;;;;;;5109308;28;19963;-69
2021/08/18 00:21:04;;;;;;;;;;;16.80;99.90;;;;;;5107061;28;20014;-70
2021/08/18 00:23:31;;;;;;;;;;;16.80;99.90;;;;;;5109842;28;20015;-71
2021/08/18 00:25:57;;;;;;;;;;;16.80;99.90;;;;;;5109892;28;19962;-70
2021/08/18 00:28:24;;;;;;;6.90;3.15;;;16.80;99.90;;;;;;5109323;28;21896;-69
2021/08/18 00:30:51;;;;;;;12.30;3.55;;;16.80;99.90;;;;;;5107329;28;20746;-69
2021/08/18 00:33:18;;;;;;;;;;;16.80;99.90;;;;;;5108343;28;20026;-71
2021/08/18 00:35:44;;;;;;;;;;;16.80;99.90;;;;;;5109482;28;20337;-72
2021/08/18 00:38:12;;;;;;;;;;;16.90;99.90;;;;;;5109320;27;19972;-68
2021/08/18 00:40:39;;;;;;;;;;;16.90;99.90;;;;;;5108610;28;20519;-69
2021/08/18 00:43:05;;;;;;;;;;;16.90;99.90;;;;;;5109641;28;19960;-68
2021/08/18 00:45:32;;;;;;;;;;;16.90;99.90;;;;;;5107760;28;19999;-66
2021/08/18 00:47:59;;;;;;;;;;;16.90;99.90;;;;;;5108082;28;20017;-69
2021/08/18 00:50:28;;;;;;;;;;;16.90;99.90;;;;;;5108967;28;19996;-71
2021/08/18 00:52:55;;;;;;;;;;;16.90;99.90;;;;;;5109096;28;20439;-68
2021/08/18 00:55:23;;;;;;;;;;;16.90;99.90;;;;;;5109373;27;20688;-68
2021/08/18 00:57:50;;;;;;;;;;;16.90;99.90;;;;;;5107890;28;19971;-71
2021/08/18 01:00:18;;;;;;;;;;;16.90;99.90;;;;;;5109016;28;20529;-70
2021/08/18 01:02:46;;;;;;;;;;;16.90;99.90;;;;;;5107328;28;20444;-70
2021/08/18 01:05:14;;;;;;;;;;;16.90;99.90;;;;;;5109062;28;19968;-69
2021/08/18 01:07:41;;;;;;;;;;;16.90;99.90;;;;;;5106235;28;19961;-71
2021/08/18 01:10:09;;;;;;;;;;;17.00;99.90;;;;;;5107526;28;19972;-70
2021/08/18 01:12:37;;;;;;;;;;;17.00;99.90;;;;;;5109022;28;20022;-69
2021/08/18 01:15:05;;;;;;;;;;;17.00;99.90;;;;;;5107813;28;20397;-69
2021/08/18 01:17:32;;;;;;;;;;;17.00;99.90;;;;;;5108883;28;20016;-70
2021/08/18 01:19:59;;;;;;;;;;;17.00;99.90;;;;;;5107444;28;20067;-71
2021/08/18 01:22:26;;;;;;;;;;;17.00;99.90;;;;;;5108097;28;19972;-70
2021/08/18 01:24:52;;;;;;;;;;;17.00;99.90;;;;;;5107540;28;19968;-73
2021/08/18 01:27:19;;;;;;;;;;;17.00;99.90;;;;;;5108360;28;20490;-68
2021/08/18 01:29:47;;;;;;;;;;;17.00;99.90;;;;;;5107694;28;19964;-66
2021/08/18 01:32:14;;;;;;;;;;;17.00;99.90;;;;;;5106651;28;20056;-71
2021/08/18 01:34:40;;;;;;;;;;;17.00;99.90;;;;;;5107918;27;20037;-71
2021/08/18 01:37:07;;;;;;;;;;;17.00;99.90;;;;;;5106037;28;19968;-72
2021/08/18 01:39:33;;;;;;;;;;;17.00;99.90;;;;;;5108332;28;19964;-71
2021/08/18 01:42:00;;;;;;;;;;;17.00;99.90;;;;;;5108075;28;20013;-69
2021/08/18 01:44:27;;;;;;;;;;;17.00;99.90;;;;;;5106596;28;20428;-69
2021/08/18 01:46:55;;;;;;;;;;;17.00;99.90;;;;;;5107503;28;19969;-68
2021/08/18 01:49:21;;;;;;;;;;;17.00;99.90;;;;;;5107887;28;19968;-72
2021/08/18 01:51:48;;;;;;;;;;;17.00;99.90;;;;;;5107299;28;19972;-70
2021/08/18 01:54:15;;;;;;;;;;;17.00;99.90;;;;;;5107009;28;20053;-71
2021/08/18 01:56:41;;;;;;;;;;;17.00;99.90;;;;;;5107292;28;19987;-70
2021/08/18 01:59:08;;;;;;;;;;;16.90;99.90;;;;;;5107382;28;19969;-69
2021/08/18 02:01:34;;;;;;;;;;;16.90;99.90;;;;;;5107970;28;19960;-69
2021/08/18 02:04:03;;;;;;;13.00;3.90;;;17.00;99.90;;;;;;5106568;28;21022;-68
2021/08/18 02:06:32;;;;;;;11.60;3.55;;;16.90;99.90;;;;;;5107627;28;20252;-71
2021/08/18 02:08:59;;;;;;;9.20;3.75;;;16.90;99.90;;;;;;5105040;28;20204;-72
2021/08/18 02:11:26;;;;;;;7.57;3.17;;;16.90;99.90;;;;;;5105278;27;20250;-69
2021/08/18 02:13:53;;;;;;;9.55;3.80;;;16.90;99.90;;;;;;5107482;28;20201;-70
2021/08/18 02:16:20;;;;;;;6.55;3.72;;;16.90;99.90;;;;;;5106337;28;20250;-70
2021/08/18 02:18:46;;;;;;;10.63;3.58;;;16.90;99.90;;;;;;5106885;28;20236;-71
2021/08/18 02:21:15;;;;;;;14.38;3.88;;;17.00;99.90;;;;;;5105082;28;20930;-70
2021/08/18 02:23:41;;;;;;;9.95;3.60;;;17.00;99.90;;;;;;5107144;28;20567;-68
2021/08/18 02:26:08;;;;;;;7.75;3.30;;;16.90;99.90;;;;;;5105355;28;20903;-71
2021/08/18 02:28:35;;;;;;;7.72;3.63;;;16.90;99.90;;;;;;5106529;28;20661;-72
2021/08/18 02:31:02;;;;;;;5.28;3.60;;;17.00;99.90;;;;;;5107156;28;20193;-69
2021/08/18 02:33:28;;;;;;;10.05;3.63;;;17.00;99.90;;;;;;5105329;28;20205;-70
2021/08/18 02:35:55;;;;;;;9.35;3.33;;;17.00;99.90;;;;;;5106769;28;20233;-69
2021/08/18 02:38:23;;;;;;;8.30;3.80;;;17.00;99.90;;;;;;5106168;28;20272;-70
2021/08/18 02:40:50;;;;;;;8.68;3.38;;;17.00;99.90;;;;;;5106253;28;20657;-71
2021/08/18 02:43:17;;;;;;;10.70;3.50;;;17.00;99.90;;;;;;5106868;28;20197;-71
2021/08/18 02:45:44;;;;;;;11.55;3.55;;;17.00;99.90;;;;;;5104143;28;20220;-67
2021/08/18 02:48:11;;;;;;;6.80;3.10;;;17.00;99.90;;;;;;5105137;28;20258;-70
2021/08/18 02:50:38;;;;;;;15.25;3.78;;;17.00;99.90;;;;;;5106724;28;20273;-70
2021/08/18 02:53:05;;;;;;;8.23;3.13;;;17.00;99.90;;;;;;5105979;28;20197;-69
2021/08/18 02:55:33;;;;;;;9.13;3.60;;;16.90;99.90;;;;;;5106732;28;20201;-69
2021/08/18 02:58:00;;;;;;;9.88;3.60;;;16.90;99.90;;;;;;5108029;28;20214;-74
2021/08/18 03:00:26;;;;;;;6.80;3.42;;;16.90;99.90;;;;;;5110018;28;20224;-69
2021/08/18 03:02:53;;;;;;;9.82;3.65;;;17.00;99.90;;;;;;5110423;28;20950;-70
2021/08/18 03:05:20;;;;;;;8.02;3.65;;;16.90;99.90;;;;;;5110045;28;20254;-71
2021/08/18 03:07:47;;;;;;;9.30;3.78;;;16.90;99.90;;;;;;5108622;28;20132;-72
2021/08/18 03:10:14;;;;;;;7.68;3.42;;;16.90;99.90;;;;;;5109385;28;20213;-68
2021/08/18 03:12:42;;;;;;;5.97;3.30;;;16.80;99.90;;;;;;5110796;28;20205;-74
2021/08/18 03:15:09;;;;;;;8.07;3.60;;;16.80;99.90;;;;;;5110235;28;20254;-70
2021/08/18 03:17:36;;;;;;;8.05;3.35;;;16.80;99.90;;;;;;5110498;28;20235;-71
2021/08/18 03:20:05;;;;;;;7.13;3.08;;;16.80;99.90;;;;;;5109457;28;20247;-71
2021/08/18 03:22:32;;;;;;;7.35;3.60;;;16.80;99.90;;;;;;5109125;28;20261;-69
2021/08/18 03:24:59;;;;;;;7.13;3.30;;;16.70;99.90;;;;;;5110528;28;20197;-71
2021/08/18 03:27:25;;;;;;;;;;;16.70;99.90;;;;;;5111268;28;19993;-70
2021/08/18 03:29:54;;;;;;;11.00;3.72;;;16.70;99.90;;;;;;5109962;28;19960;-70
2021/08/18 03:32:20;;;;;;;7.72;3.80;;;16.70;99.90;;;;;;5108520;28;20237;-72
2021/08/18 03:34:47;;;;;;;10.02;3.40;;;16.70;99.90;;;;;;5109159;28;20700;-70
2021/08/18 03:37:14;;;;;;;7.18;3.53;;;16.70;99.90;;;;;;5108528;28;20278;-71
2021/08/18 03:39:41;;;;;;;7.57;3.80;;;16.70;99.90;;;;;;5109489;28;20220;-71
2021/08/18 03:42:08;;;;;;;6.05;3.65;;;16.70;99.90;;;;;;5110292;28;20680;-71
2021/08/18 03:44:35;;;;;;;9.60;3.63;;;16.70;99.90;;;;;;5110278;28;20224;-69
2021/08/18 03:47:03;;;;;;;12.93;4.25;;;16.70;99.90;;;;;;5109804;27;20278;-68
2021/08/18 03:49:30;;;;;;;12.48;3.78;;;16.70;99.90;;;;;;5109570;28;20198;-72
2021/08/18 03:51:57;;;;;;;13.63;3.63;;;16.80;99.90;;;;;;5108480;28;20487;-70
2021/08/18 03:54:24;;;;;;;8.38;3.33;;;16.70;99.90;;;;;;5108121;28;20295;-68
2021/08/18 03:56:50;;;;;;;11.32;3.55;;;16.70;99.90;;;;;;5108024;28;20201;-69
2021/08/18 03:59:17;;;;;;;6.18;3.78;;;16.80;99.90;;;;;;5109916;28;20773;-70
2021/08/18 04:01:45;;;;;;;10.15;3.58;;;16.80;99.90;;;;;;5110119;28;20205;-69
2021/08/18 04:04:13;;;;;;;9.80;3.83;;;16.70;99.90;;;;;;5109017;27;20196;-70
2021/08/18 04:06:40;;;;;;;9.23;3.70;;;16.80;99.90;;;;;;5108013;27;20265;-71
2021/08/18 04:09:07;;;;;;;8.05;3.20;;;16.80;99.90;;;;;;5106514;28;20198;-72
2021/08/18 04:11:33;;;;;;;;;;;16.80;99.90;;;;;;5108523;28;20200;-68
2021/08/18 04:14:00;;;;;;;;;;;16.80;99.90;;;;;;5109255;28;19959;-72
2021/08/18 04:16:26;;;;;;;;;;;16.80;99.90;;;;;;5108512;28;19967;-72
2021/08/18 04:18:53;;;;;;;;;;;16.80;99.90;;;;;;5108832;28;19960;-68
2021/08/18 04:21:21;;;;;;;;;;;16.80;99.90;;;;;;5109206;28;20453;-71
2021/08/18 04:23:48;;;;;;;;;;;16.80;99.90;;;;;;5109764;28;19957;-70
2021/08/18 04:26:14;;;;;;;;;;;16.80;99.90;;;;;;5106518;28;19960;-70
2021/08/18 04:28:41;;;;;;;;;;;16.80;99.90;;;;;;5108356;28;19963;-69
2021/08/18 04:31:08;;;;;;;;;;;16.80;99.90;;;;;;5109291;28;20007;-68
2021/08/18 04:33:34;;;;;;;;;;;16.80;99.90;;;;;;5107963;28;19960;-73
2021/08/18 04:36:01;;;;;;;;;;;16.80;99.90;;;;;;5108976;28;19960;-71
2021/08/18 04:38:29;;;;;;;;;;;16.90;99.90;;;;;;5108364;28;20380;-70
2021/08/18 04:40:55;;;;;;;;;;;16.80;99.90;;;;;;5107489;28;20041;-69
2021/08/18 04:43:22;;;;;;;;;;;16.80;99.90;;;;;;5108902;28;20048;-69
2021/08/18 04:45:49;;;;;;;;;;;16.90;99.90;;;;;;5106477;27;19960;-69
2021/08/18 04:48:16;;;;;;;;;;;16.90;99.90;;;;;;5106999;28;20376;-70
2021/08/18 04:50:42;;;;;;;;;;;16.90;99.90;;;;;;5105748;28;20036;-71
2021/08/18 04:53:10;;;;;;;;;;;16.90;99.90;;;;;;5108072;28;19964;-70
2021/08/18 04:55:38;;;;;;;;;;;17.00;99.90;;;;;;5108535;28;20010;-70
2021/08/18 04:58:05;;;;;;;;;;;17.00;99.90;;;;;;5106710;28;19957;-69
2021/08/18 05:00:32;;;;;;;;;;;17.00;99.90;;;;;;5107700;28;20060;-70
2021/08/18 05:02:58;;;;;;;;;;;17.00;99.90;;;;;;5106433;28;20556;-70
2021/08/18 05:05:25;;;;;;;;;;;17.00;99.90;;;;;;5108217;27;20014;-70
2021/08/18 05:07:52;;;;;;;;;;;17.00;99.90;;;;;;5107113;27;19960;-70
2021/08/18 05:10:20;;;;;;;;;;;17.00;99.90;;;;;;5108215;28;20067;-71
2021/08/18 05:12:48;;;;;;;;;;;17.00;99.90;;;;;;5105342;28;20451;-70
2021/08/18 05:15:14;;;;;;;;;;;17.00;99.90;;;;;;5107488;28;19999;-70
2021/08/18 05:17:44;;;;;;;;;;;17.10;99.90;;;;;;5107278;28;19960;-69
2021/08/18 05:20:11;;;;;;;;;;;17.10;99.90;;;;;;5106604;28;20653;-70
2021/08/18 05:22:37;;;;;;;;;;;17.10;99.90;;;;;;5104689;28;19960;-70
2021/08/18 05:25:05;;;;;;;;;;;17.10;99.90;;;;;;5105671;28;19995;-69
2021/08/18 05:27:32;;;;;;;;;;;17.10;99.90;;;;;;5107784;28;19961;-69
2021/08/18 05:30:00;;;;;;;;;;;17.10;99.90;;;;;;5106835;28;19964;-70
2021/08/18 05:32:27;;;;;;;;;;;17.10;99.90;;;;;;5102447;28;19960;-71
2021/08/18 05:34:54;;;;;;;;;;;17.10;99.90;;;;;;5107005;28;19982;-72
2021/08/18 05:37:20;;;;;;;;;;;17.10;99.90;;;;;;5107654;28;19991;-69
2021/08/18 05:39:47;;;;;;;;;;;17.10;99.90;;;;;;5107776;27;19961;-70
2021/08/18 05:42:14;;;;;;;;;;;17.10;99.90;;;;;;5105754;27;19967;-69
2021/08/18 05:44:40;;;;;;;;;;;17.20;99.90;;;;;;5107788;28;19956;-72
2021/08/18 05:47:13;;;;;;;;;;;17.10;99.90;;;;;;5107227;28;19975;-70
2021/08/18 05:49:42;;;;;;;;;;;17.20;99.90;;;;;;5103811;28;19960;-71
2021/08/18 05:52:09;;;;;;;;;;;17.20;99.90;;;;;;5102772;28;19971;-70
2021/08/18 05:54:36;;;;;;;;;;;17.20;99.90;;;;;;5102343;28;19960;-70
2021/08/18 05:57:03;;;;;;;;;;;17.20;99.90;;;;;;5105576;28;19973;-71
2021/08/18 05:59:30;;;;;;;;;;;17.30;99.90;;;;;;5104851;28;19956;-70
2021/08/18 06:01:57;;;;;;;;;;;17.30;99.90;;;;;;5106198;28;20017;-72
2021/08/18 06:04:24;;;;;;;;;;;17.30;99.90;;;;;;5103454;28;19968;-69
2021/08/18 06:06:51;;;;;;;;;;;17.30;99.90;;;;;;5102508;28;19956;-70
2021/08/18 06:09:18;;;;;;;;;;;17.30;99.90;;;;;;5103669;28;20017;-69
2021/08/18 06:11:44;;;;;;;;;;;17.40;99.90;;;;;;5106275;28;19976;-71
2021/08/18 06:14:11;;;;;;;;;;;17.40;99.90;;;;;;5107081;28;20052;-71
2021/08/18 06:16:38;;;;;;;;;;;17.40;99.90;;;;;;5104704;28;19961;-71
2021/08/18 06:19:04;;;;;;;;;;;17.50;99.90;;;;;;5103593;28;19967;-71
2021/08/18 06:21:32;;;;;;;;;;;17.50;99.90;;;;;;5104736;28;19959;-71
2021/08/18 06:24:03;;;;;;;;;;;17.50;99.90;;;;;;5105953;28;20004;-69
2021/08/18 06:26:30;;;;;;;;;;;17.60;99.90;;;;;;5103083;28;20458;-68
2021/08/18 06:28:57;;;;;;;;;;;17.60;99.90;;;;;;5106556;28;19960;-69
2021/08/18 06:31:23;;;;;;;8.05;3.20;;;17.60;99.90;;;;;;5106389;28;19962;-68
2021/08/18 06:33:50;;;;;;;7.38;3.28;;;17.60;99.90;;;;;;5105919;28;20629;-70
2021/08/18 06:36:17;;;;;;;5.80;2.95;;;17.60;99.90;;;;;;5105591;28;20237;-70
2021/08/18 06:38:45;;;;;;;5.95;3.42;;;17.70;99.90;;;;;;5104632;28;20201;-70
2021/08/18 06:41:12;;;;;;;7.38;3.35;;;17.70;99.90;;;;;;5104581;28;20201;-71
2021/08/18 06:43:39;;;;;;;9.13;3.58;;;17.80;99.90;;;;;;5106227;28;20732;-70
2021/08/18 06:46:06;;;;;;;5.90;3.20;;;17.80;99.90;;;;;;5105161;28;20833;-69
2021/08/18 06:48:34;;;;;;;;;;;17.80;99.90;;;;;;5104170;28;20714;-70
2021/08/18 06:51:01;;;;;;;8.63;3.50;;;17.90;99.90;;;;;;5105637;28;20207;-68
2021/08/18 06:53:28;;;;;;;9.88;3.53;;;17.90;99.90;;;;;;5104279;28;20258;-70
2021/08/18 06:55:56;;;;;;;6.75;3.47;;;18.00;99.90;;;;;;5106871;28;20570;-70
2021/08/18 06:58:23;;;;;;;5.45;3.20;;;18.10;99.90;;;;;;5104163;28;20197;-69
2021/08/18 07:00:49;;;;;;;8.35;3.58;;;18.10;99.90;;;;;;5104311;28;20288;-70
2021/08/18 07:03:16;;;;;;;7.53;3.55;;;18.20;99.90;;;;;;5103425;28;20681;-69
2021/08/18 07:05:43;;;;;;;5.80;3.28;;;18.20;99.90;;;;;;5105067;28;20634;-69
2021/08/18 07:08:10;;;;;;;7.40;3.47;;;18.20;99.90;;;;;;5106144;28;20209;-70
2021/08/18 07:10:36;;;;;;;5.97;3.60;;;18.30;99.90;;;;;;5106604;28;20661;-69
2021/08/18 07:13:05;;;;;;;11.85;3.70;;;18.30;99.90;;;;;;5104596;28;20197;-69
2021/08/18 07:15:31;;;;;;;9.25;3.80;;;18.30;99.90;;;;;;5105836;28;20262;-70
2021/08/18 07:18:00;;;;;;;12.93;3.72;;;18.30;99.90;;;;;;5105579;28;20317;-70
2021/08/18 07:20:27;;;;;;;6.22;3.55;;;18.30;99.90;;;;;;5106598;28;20213;-70
2021/08/18 07:22:54;;;;;;;10.70;3.67;;;18.30;99.90;;;;;;5106481;28;20246;-70
2021/08/18 07:25:20;;;;;;;6.80;3.90;;;18.40;99.90;;;;;;5106053;28;20250;-70
2021/08/18 07:27:47;;;;;;;10.32;3.60;;;18.40;99.90;;;;;;5106187;28;20205;-70
2021/08/18 07:30:15;;;;;;;9.27;3.72;;;18.40;99.90;;;;;;5106484;28;20637;-70
2021/08/18 07:32:42;;;;;;;12.57;3.90;;;18.40;99.90;;;;;;5106656;28;20700;-70
2021/08/18 07:35:10;;;;;;;;;;;18.50;99.90;;;;;;5104868;28;20625;-71
2021/08/18 07:37:37;;;;;;;8.15;3.80;;;18.50;99.90;;;;;;5105927;28;20062;-69
2021/08/18 07:40:05;;;;;;;8.23;3.85;;;18.50;99.90;;;;;;5105595;28;20965;-71
2021/08/18 07:42:32;;;;;;;6.80;3.00;;;18.60;99.90;;;;;;5105767;28;20288;-70
2021/08/18 07:44:59;;;;;;;7.65;3.40;;;18.60;99.90;;;;;;5110035;28;20213;-71
2021/08/18 07:47:27;;;;;;;7.13;3.83;;;18.60;99.90;;;;;;5110097;28;20200;-71
2021/08/18 07:49:54;;;;;;;8.10;3.45;;;18.60;99.90;;;;;;5107324;27;20205;-70
2021/08/18 07:52:21;;;;;;;6.35;3.35;;;18.60;99.90;;;;;;5109668;28;20285;-69
2021/08/18 07:54:48;;;;;;;9.77;3.60;;;18.60;99.90;;;;;;5108899;28;20269;-71
2021/08/18 07:57:14;;;;;;;8.60;3.50;;;18.60;99.90;;;;;;5108886;27;20208;-71
2021/08/18 07:59:41;;;;;;;5.22;3.40;;;18.60;99.90;;;;;;5108745;28;20213;-71
2021/08/18 08:02:08;;;;;;;8.95;3.50;;;18.70;99.90;;;;;;5107107;27;20266;-71
2021/08/18 08:04:36;;;;;;;9.55;3.53;;;18.60;99.90;;;;;;5107852;28;20246;-71
2021/08/18 08:07:04;;;;;;;6.90;3.60;;;18.70;99.90;;;;;;5108531;28;20380;-71
2021/08/18 08:09:30;;;;;;;13.02;3.50;;;18.60;99.90;;;;;;5108748;28;20213;-71
2021/08/18 08:11:57;;;;;;;9.32;3.90;;;18.70;99.90;;;;;;5108587;28;20214;-68
2021/08/18 08:14:24;;;;;;;5.30;3.45;;;18.70;99.90;;;;;;5108287;28;20225;-67
2021/08/18 08:16:51;;;;;;;8.57;4.22;;;18.80;99.90;;;;;;5108648;28;21131;-69
2021/08/18 08:19:18;;;;;;;8.73;4.22;;;18.80;99.90;;;;;;5108953;28;20297;-69
2021/08/18 08:21:46;;;;;;;7.55;3.75;;;18.80;99.90;;;;;;5109257;28;20661;-68
2021/08/18 08:24:13;;;;;;;5.90;3.60;;;18.80;99.90;;;;;;5108603;28;20209;-68
2021/08/18 08:26:40;;;;;;;6.82;4.68;;;18.80;99.90;;;;;;5107642;28;20739;-68
2021/08/18 08:29:06;;;;;;;9.02;4.40;;;18.80;99.90;;;;;;5108898;28;20254;-68
2021/08/18 08:31:33;;;;;;;8.85;3.92;;;18.80;99.90;;;;;;5107466;28;20270;-68
2021/08/18 08:34:00;;;;;;;8.40;3.58;;;18.80;99.90;;;;;;5107065;28;20208;-68
2021/08/18 08:36:27;;;;;;;6.20;3.40;;;18.80;99.90;;;;;;5108655;28;20289;-68
2021/08/18 08:38:55;;;;;;;8.00;3.45;;;18.80;99.90;;;;;;5107143;28;20217;-67
2021/08/18 08:41:22;;;;;;;9.20;3.20;;;18.80;99.90;;;;;;5107552;28;20304;-67
2021/08/18 08:43:49;;;;;;;10.88;3.20;;;18.80;99.90;;;;;;5105514;27;20282;-67
2021/08/18 08:46:16;;;;;;;9.50;3.40;;;18.90;99.90;;;;;;5106698;28;20201;-66
2021/08/18 08:48:43;;;;;;;5.75;2.80;;;18.90;99.90;;;;;;5108179;28;20560;-66
2021/08/18 08:51:09;;;;;;;5.63;2.90;;;18.90;99.90;;;;;;5108990;28;20213;-68
2021/08/18 08:53:37;;;;;;;8.23;2.75;;;19.00;99.90;;;;;;5108841;28;20313;-67
2021/08/18 08:56:08;;;;;;;7.00;3.05;;;19.00;99.90;;;;;;5107638;28;20201;-68
2021/08/18 08:58:35;;;;;;;4.05;2.70;;;19.10;99.90;;;;;;5108425;27;20188;-69
2021/08/18 09:01:01;;;;;;;10.45;3.20;;;19.10;99.90;;;;;;5106400;28;20260;-67
2021/08/18 09:03:29;;;;;;;4.00;2.47;;;19.20;99.90;;;;;;5106615;28;20200;-67
2021/08/18 09:06:03;;;;;;;9.23;3.03;;;19.30;99.90;;;;;;5108045;27;20226;-66
2021/08/18 09:08:30;;;;;;;8.57;3.30;;;19.40;99.90;;;;;;5108912;28;20261;-66
2021/08/18 09:11:09;;;;;;;11.35;3.78;;;19.40;99.90;;;;;;5107995;28;20270;-68
2021/08/18 09:13:42;;;;;;;9.25;3.50;;;19.40;99.90;;;;;;5105994;28;20216;-68
2021/08/18 09:16:09;;;;;;;8.43;4.05;;;19.50;99.90;;;;;;5107043;28;20213;-70
2021/08/18 09:18:43;;;;;;;8.02;4.68;;;19.50;99.90;;;;;;5108398;28;20254;-67
2021/08/18 09:21:35;;;;;;;9.52;5.68;;;19.50;99.90;;;;;;5106798;28;20716;-69
2021/08/18 09:24:23;;;;;;;12.77;5.78;;;19.60;99.90;;;;;;5106531;28;20225;-69
2021/08/18 09:26:53;;;;;;;13.90;6.85;;;19.60;99.90;;;;;;5106643;28;20200;-70
2021/08/18 09:29:28;;;;;;;12.52;6.30;;;19.70;99.90;;;;;;5105602;28;20209;-70
2021/08/18 09:31:55;;;;;;;10.27;6.20;;;19.70;99.90;;;;;;5106869;28;20225;-67
2021/08/18 09:34:21;;;;;;;;;;;19.80;99.90;;;;;;5106769;28;20250;-67
2021/08/18 09:36:48;;;;;;;12.95;7.10;;;19.80;99.90;;;;;;5107596;28;20390;-68
2021/08/18 09:39:20;;;;;;;10.13;6.47;;;19.80;99.90;;;;;;5107449;28;20205;-69
2021/08/18 09:41:47;;;;;;;13.82;7.65;;;19.80;99.90;;;;;;5107172;28;20213;-68
2021/08/18 09:44:15;;;;;;;13.35;7.18;;;19.80;99.90;;;;;;5107650;28;20224;-69
2021/08/18 09:46:42;;;;;;;14.00;7.63;;;19.80;99.90;;;;;;5107813;28;20826;-70
2021/08/18 09:49:10;;;;;;;16.27;7.90;;;19.80;99.90;;;;;;5106407;27;20209;-67
2021/08/18 09:51:38;;;;;;;18.52;7.55;;;19.80;99.90;;;;;;5105197;28;20209;-69
2021/08/18 09:54:13;;;;;;;16.17;8.05;;;19.70;99.90;;;;;;5107400;28;20275;-68
2021/08/18 09:56:45;;;;;;;15.35;8.40;;;19.70;99.90;;;;;;5107451;28;20224;-71
2021/08/18 09:59:12;;;;;;;16.83;8.18;;;19.70;99.90;;;;;;5107542;28;20745;-69
2021/08/18 10:01:41;;;;;;;16.00;7.95;;;19.70;99.90;;;;;;5105475;28;20254;-69
2021/08/18 10:04:09;;;;;;;14.80;7.82;;;19.70;99.90;;;;;;5106137;27;20240;-70
2021/08/18 10:06:37;;;;;;;16.17;7.57;;;19.70;99.90;;;;;;5105627;28;20205;-68
2021/08/18 10:09:04;;;;;;;12.43;7.70;;;19.70;99.90;;;;;;5107207;28;20201;-69
2021/08/18 10:11:31;;;;;;;16.73;8.23;;;19.80;99.90;;;;;;5107382;28;20233;-70
2021/08/18 10:13:58;;;;;;;17.55;7.57;;;19.80;99.90;;;;;;5106404;28;20209;-67
2021/08/18 10:16:27;;;;;;;16.83;8.18;;;19.90;99.90;;;;;;5105850;28;20270;-68
2021/08/18 10:18:56;;;;;;;17.20;7.90;;;20.00;99.90;;;;;;5105783;28;20205;-71
2021/08/18 10:21:25;;;;;;;10.93;7.68;;;20.00;99.90;;;;;;5107138;28;20300;-69
2021/08/18 10:23:57;;;;;;;14.57;7.70;;;20.10;99.90;;;;;;5106711;28;20222;-68
2021/08/18 10:26:47;;;;;;;13.07;7.10;;;20.20;99.90;;;;;;5107273;28;20201;-69
2021/08/18 10:29:16;;;;;;;12.52;7.55;;;20.30;99.90;;;;;;5106552;28;20281;-66
2021/08/18 10:31:56;;;;;;;12.52;6.85;;;20.30;99.90;;;;;;5107214;28;20055;-70
2021/08/18 10:34:51;;;;;;;13.88;7.22;;;20.50;99.90;;;;;;5106860;28;20274;-66
2021/08/18 10:37:23;;;;;;;14.23;6.82;;;20.60;99.90;;;;;;5104459;28;20713;-71
2021/08/18 10:39:52;;;;;;;17.73;7.78;;;20.70;99.90;;;;;;5107013;28;20679;-69
2021/08/18 10:42:32;;;;;;;13.52;6.60;;;20.80;99.90;;;;;;5103908;28;20291;-72
2021/08/18 10:45:00;;;;;;;12.32;7.07;;;20.90;99.90;;;;;;5106110;28;20232;-71
2021/08/18 10:47:28;;;;;;;11.15;7.05;;;20.90;99.90;;;;;;5105164;28;20625;-69
2021/08/18 10:49:57;;;;;;;15.32;6.88;;;21.00;99.90;;;;;;5106608;28;20258;-69
2021/08/18 10:52:52;;;;;;;14.35;7.00;;;21.00;99.90;;;;;;5104560;28;20279;-68
2021/08/18 10:55:28;;;;;;;10.68;6.22;;;21.10;99.90;;;;;;5106406;28;20229;-71
2021/08/18 10:57:56;;;;;;;10.30;5.97;;;21.00;99.90;;;;;;5105298;28;20232;-68
2021/08/18 11:00:23;;;;;;;;;;;21.00;99.90;;;;;;5106055;28;20594;-69
2021/08/18 11:02:59;;;;;;;9.35;5.15;;;21.00;99.90;;;;;;5105876;28;20406;-69
2021/08/18 11:05:48;;;;;;;12.90;5.45;;;20.90;99.60;;;;;;5102951;28;20208;-67
2021/08/18 11:08:17;;;;;;;11.73;5.75;;;20.90;99.50;;;;;;5104978;28;20240;-70
2021/08/18 11:10:59;;;;;;;;;;;20.90;99.50;;;;;;5105609;28;20201;-68
2021/08/18 11:13:35;;;;;;;;;;;20.90;99.60;;;;;;5105924;28;20440;-68
2021/08/18 11:16:07;;;;;;;11.60;5.30;;;20.90;99.40;;;;;;5103499;28;20396;-68
2021/08/18 11:18:35;;;;;;;;;;;21.00;99.10;;;;;;5108183;28;19959;-72
2021/08/18 11:21:03;;;;;;;;;;;21.00;99.00;;;;;;5109945;28;20436;-71
2021/08/18 11:23:31;;;;;;;;;;;21.10;98.90;;;;;;5111118;28;19983;-71
2021/08/18 11:25:59;;;;;;;;;;;21.20;98.70;;;;;;5110048;28;20021;-71
2021/08/18 11:28:27;;;;;;;;;;;21.30;98.50;;;;;;5110492;28;19961;-68
2021/08/18 11:30:57;;;;;;;;;;;21.30;98.40;;;;;;5110474;28;19962;-72
2021/08/18 11:33:24;;;;;;;12.23;5.35;;;21.50;98.20;;;;;;5109989;28;20369;-70
2021/08/18 11:35:51;;;;;;;9.60;4.97;;;21.50;97.80;;;;;;5109744;28;20281;-68
2021/08/18 11:38:19;;;;;;;8.75;4.90;;;21.60;97.40;;;;;;5108684;28;20223;-70
2021/08/18 11:40:48;;;;;;;;;;;21.50;97.10;;;;;;5109756;28;20213;-71
2021/08/18 11:43:14;;;;;;;;;;;21.60;97.30;;;;;;5108760;28;19964;-70
2021/08/18 11:45:41;;;;;;;13.15;5.38;;;21.60;96.80;;;;;;5110224;28;20387;-69
2021/08/18 11:48:10;;;;;;;12.82;5.10;;;21.60;96.60;;;;;;5110205;28;20644;-71
2021/08/18 11:50:37;;;;;;;10.15;4.70;;;21.80;96.60;;;;;;5107711;28;20261;-68
2021/08/18 11:53:06;;;;;;;9.60;4.32;;;21.90;96.40;;;;;;5107478;27;20204;-71
2021/08/18 11:55:35;;;;;;;;;;;22.10;96.20;;;;;;5107752;28;20201;-69
2021/08/18 11:58:04;;;;;;;7.50;4.40;;;22.40;95.80;;;;;;5109365;28;20403;-71
2021/08/18 12:00:31;;;;;;;;;;;22.70;95.20;;;;;;5109834;28;20258;-70
2021/08/18 12:02:59;;;;;;;9.38;4.50;;;22.90;94.40;;;;;;5109225;28;20424;-70
2021/08/18 12:05:30;;;;;;;;;;;22.80;93.80;;;;;;5110268;28;20205;-67
2021/08/18 12:08:07;;;;;;;12.52;4.57;;;22.80;93.50;;;;;;5107322;28;20101;-68
2021/08/18 12:10:41;;;;;;;7.28;4.30;;;22.70;93.20;;;;;;5108777;28;20744;-70
2021/08/18 12:13:10;;;;;;;10.65;3.97;;;22.50;92.80;;;;;;5108535;28;20216;-68
2021/08/18 12:15:42;;;;;;;8.32;4.30;;;22.40;93.10;;;;;;5109560;28;22066;-67
2021/08/18 12:18:27;;;;;;;8.23;4.40;;;22.40;93.10;;;;;;5108055;28;20212;-67
2021/08/18 12:20:54;;;;;;;7.68;3.95;;;22.30;92.80;;;;;;5109183;28;20297;-68
2021/08/18 12:23:26;;;;;;;7.35;4.07;;;22.20;92.80;;;;;;5107967;28;20249;-69
2021/08/18 12:25:54;;;;;;;6.25;3.97;;;22.30;93.10;;;;;;5109278;28;20209;-70
2021/08/18 12:28:22;;;;;;;6.65;3.88;;;22.80;93.20;;;;;;5108289;28;20645;-68
2021/08/18 12:30:57;;;;;;;8.45;4.25;;;23.20;92.40;;;;;;5109289;28;20197;-68
2021/08/18 12:33:24;;;;;;;9.75;4.20;;;23.40;91.80;;;;;;5106931;27;20200;-69
2021/08/18 12:36:04;;;;;;;6.35;3.72;;;23.50;91.40;;;;;;5109013;28;20308;-68
2021/08/18 12:38:31;;;;;;;6.47;3.90;;;23.40;91.40;;;;;;5107876;28;20227;-69
2021/08/18 12:41:07;;;;;;;9.50;4.30;;;23.40;91.10;;;;;;5106415;28;20662;-69
2021/08/18 12:43:33;;;;;;;8.25;4.05;;;23.30;90.60;;;;;;5108362;27;20205;-68
2021/08/18 12:46:00;;;;;;;11.90;4.30;;;23.00;90.60;;;;;;5109051;28;20254;-70
2021/08/18 12:48:29;;;;;;;8.20;4.22;;;22.80;90.80;;;;;;5107590;28;20250;-70
2021/08/18 12:50:59;;;;;;;10.38;4.65;;;22.70;91.10;;;;;;5107068;28;20209;-70
2021/08/18 12:53:26;;;;;;;8.25;3.92;;;22.60;91.20;;;;;;5106719;28;20193;-70
2021/08/18 12:55:53;;;;;;;8.48;4.35;;;22.50;91.20;;;;;;5107678;28;20205;-70
2021/08/18 12:58:23;;;;;;;8.57;4.20;;;22.30;91.40;;;;;;5108790;28;20201;-70
2021/08/18 13:00:50;;;;;;;7.72;4.05;;;22.30;91.40;;;;;;5109120;28;20284;-70
2021/08/18 13:03:17;;;;;;;7.25;3.75;;;22.20;91.50;;;;;;5103996;28;20250;-70
2021/08/18 13:05:44;;;;;;;11.48;4.25;;;22.00;91.50;;;;;;5108575;28;20254;-69
2021/08/18 13:08:11;;;;;;;7.60;4.30;;;21.80;91.60;;;;;;5107334;28;20575;-70
2021/08/18 13:10:39;;;;;;;;;;;21.70;91.80;;;;;;5108698;28;20266;-70
2021/08/18 13:13:05;;;;;;;;;;;21.60;91.90;;;;;;5108017;28;19961;-70
2021/08/18 13:15:34;;;;;;;5.20;3.50;;;21.60;92.10;;;;;;5107785;28;19960;-69
2021/08/18 13:18:00;;;;;;;6.40;3.90;;;21.50;92.10;;;;;;5108312;28;20250;-69
2021/08/18 13:20:27;;;;;;;5.57;3.72;;;21.40;92.20;;;;;;5106654;28;20235;-70